Tylertown, MS

1:06 AM CDT on June 02, 2015 (GMT -0500)
Smithburg Rd | | Change Station
CLOSE
Current Station
Personal Weather Station
Location: Progress, MS
Elevation: 300 ft
Nearby Weather Stations

Elev 300 ft 31.03 °N, 90.28 °W | Updated 1 minute ago

Clear
Clear
69.5 °F
Feels Like 69.5 °F
N
2.0
Wind Variable Wind from NE
Gusts 3.0 mph

Today
High -- | Low -- °F
--% Chance of Precip.
Yesterday
High -- | Low -- °F
Precip. -- in
5:57 AM 8:00 PM
Full, 100% visible
Pressure 30.02 in
Visibility 10.0 miles
Clouds Clear
Dew Point 68 °F
Humidity 94%
Rainfall 0.00 in
Snow Depth Not available.
UV 0 out of 12
Pollen 3.70 out of 12
Air Quality Not available.
Flu Activity No Activity
METAR KMCB 020553Z AUTO VRB04KT 10SM CLR 22/20 A3003 RMK AO2 SLP164 T02170200 10283 20211 402890183 51005

More Conditions Fewer Conditions

Pressure 30.02 in
Visibility 10.0 miles
Clouds Clear
Dew Point 68 °F
Humidity 94%
Rainfall 0.00 in
Snow Depth Not available.
UV 0 out of 12
Pollen 3.70 out of 12
Air Quality Not available.
Flu Activity No Activity
METAR KMCB 020553Z AUTO VRB04KT 10SM CLR 22/20 A3003 RMK AO2 SLP164 T02170200 10283 20211 402890183 51005

More Conditions Fewer Conditions

10-Day Weather Forecast

Almanac

Astronomy

Jun. 02, 2015 Rise Set
Actual Time
Civil Twilight
Nautical Twilight
Astronomical Twilight
Moon
Length of Visible Light
Length of Day
Tomorrow will be .
, % of the Moon is Illuminated

Today's Extremes

State Highs State Lows

Community

WunderPhotos

Upload Photos

1,825,922 photos uploaded!

WunderBlogs® & News

Nearby

Air Quality

  Air Quality AQ Index Pollutant
Not available.

Snow Depth

Station Depth Elevation

Earthquake Activity

City Distance Mag. Time & Date
Minimum magnitude displayed is 2.5.

Coastal Water Temperatures

Place Temperature

Stations

Nearby Weather Stations

Station Location Temp. Windchill Dew Point Humidity Wind Precip. Elev Updated Type